Terminal Aerodrome Forecast
Issued by NWS Charleston, WV

Current Version | Previous Version | Graphics & Text | Print | Product List | Glossary On
Versions: 1 2 3 4 5 6 7 8 9 10 11 12 13 14 15 16 17 18 19 20 21 22
000
FTUS41 KRLX 120500
TAFHTS
TAF
KHTS 120527Z 1206/1306 02004KT P6SM SCT010
     FM121000 02005KT 3SM -DZ BR OVC010
     FM121500 04005KT 6SM BR BKN015
     FM121700 04004KT P6SM BKN015
     FM121900 04004KT P6SM BKN025
     FM122100 03005KT P6SM BKN035
     FM130200 VRB03KT P6SM BKN015=

USA.gov is the U.S. government's official web portal to all federal, state and local government web resources and services.